createdAt,value
2023-01-02T00:01:28.804Z,8.55
2023-01-02T00:06:33.344Z,8.30
2023-01-02T00:11:34.600Z,9.13
2023-01-02T00:16:35.861Z,9.00
2023-01-02T00:21:37.146Z,9.43
2023-01-02T00:26:38.676Z,9.48
2023-01-02T00:31:40.171Z,9.23
2023-01-02T00:36:41.500Z,8.80
2023-01-02T00:41:42.829Z,8.68
2023-01-02T00:46:44.181Z,9.40
2023-01-02T00:51:45.496Z,9.02
2023-01-02T00:56:46.883Z,8.60
2023-01-02T01:01:48.296Z,8.60
2023-01-02T01:06:49.706Z,9.43
2023-01-02T01:11:50.937Z,9.73
2023-01-02T01:16:52.177Z,8.48
2023-01-02T01:21:53.398Z,8.60
2023-01-02T01:26:54.678Z,7.53
2023-01-02T01:31:56.058Z,6.93
2023-01-02T01:36:57.342Z,7.30
2023-01-02T01:41:59.149Z,7.50
2023-01-02T01:47:00.521Z,7.32
2023-01-02T01:52:08.731Z,7.33
2023-01-02T01:57:17.755Z,7.78
2023-01-02T02:02:19.806Z,7.47
2023-01-02T02:07:21.409Z,7.18
2023-01-02T02:12:27.820Z,7.45
2023-01-02T02:18:08.140Z,6.90
2023-01-02T02:23:18.373Z,6.57
2023-01-02T02:28:38.219Z,7.23
2023-01-02T02:33:44.668Z,7.55
2023-01-02T02:39:04.836Z,7.18
2023-01-02T02:44:24.433Z,6.93
2023-01-02T02:49:25.649Z,7.40
2023-01-02T02:54:31.322Z,7.30
2023-01-02T02:59:33.620Z,7.40
2023-01-02T03:04:34.936Z,7.07
2023-01-02T03:09:55.152Z,7.20
2023-01-02T03:14:58.793Z,6.55
2023-01-02T03:20:12.415Z,6.60
2023-01-02T03:25:14.762Z,6.40
2023-01-02T03:30:20.487Z,6.22
2023-01-02T03:35:24.745Z,6.17
2023-01-02T03:40:26.782Z,5.65
2023-01-02T03:45:30.903Z,6.03
2023-01-02T03:51:01.367Z,5.80
2023-01-02T03:56:17.904Z,6.05
2023-01-02T04:01:27.214Z,7.07
2023-01-02T04:06:31.723Z,6.47
2023-01-02T04:11:33.909Z,6.20
2023-01-02T04:16:36.523Z,6.13
2023-01-02T04:21:39.953Z,6.55
2023-01-02T04:26:44.259Z,6.00
2023-01-02T04:31:56.666Z,5.65
2023-01-02T04:36:57.986Z,6.03
2023-01-02T04:41:59.246Z,6.18
2023-01-02T04:47:00.538Z,6.28
2023-01-02T04:52:01.770Z,5.83
2023-01-02T04:57:03.012Z,5.50
2023-01-02T05:02:04.332Z,5.70
2023-01-02T05:07:05.719Z,5.63
2023-01-02T05:12:06.981Z,6.13
2023-01-02T05:17:08.252Z,6.23
2023-01-02T05:22:31.394Z,5.80
2023-01-02T05:27:32.690Z,5.93
2023-01-02T05:32:34.010Z,5.43
2023-01-02T05:37:35.342Z,6.03
2023-01-02T05:42:36.674Z,5.63
2023-01-02T05:47:37.937Z,5.97
2023-01-02T05:52:45.066Z,5.80
2023-01-02T05:57:47.163Z,5.60
2023-01-02T06:02:48.884Z,6.00
2023-01-02T06:07:50.269Z,5.77
2023-01-02T06:12:51.516Z,5.35
2023-01-02T06:17:52.875Z,5.37
2023-01-02T06:22:55.151Z,5.88
2023-01-02T06:27:56.378Z,5.45
2023-01-02T06:32:57.655Z,5.13
2023-01-02T06:37:58.936Z,4.97
2023-01-02T06:43:00.508Z,5.27
2023-01-02T06:48:01.853Z,5.35
2023-01-02T06:53:03.149Z,5.50
2023-01-02T06:58:10.039Z,5.30
2023-01-02T07:03:13.652Z,4.53
2023-01-02T07:08:14.957Z,4.23
2023-01-02T07:13:16.251Z,3.92
2023-01-02T07:18:17.518Z,6.05
2023-01-02T07:23:18.812Z,2.57
2023-01-02T07:28:20.087Z,2.80
2023-01-02T07:33:21.456Z,5.57
2023-01-02T07:38:22.756Z,4.68
2023-01-02T07:43:24.982Z,4.15
2023-01-02T07:48:26.223Z,3.83
2023-01-02T07:53:27.497Z,4.38
2023-01-02T07:58:29.071Z,4.70
2023-01-02T08:03:31.120Z,4.63
2023-01-02T08:08:32.649Z,5.20
2023-01-02T08:13:34.027Z,4.70
2023-01-02T08:18:35.590Z,6.82
2023-01-02T08:23:37.466Z,4.17
2023-01-02T08:28:39.727Z,5.15
2023-01-02T08:33:41.112Z,7.45
2023-01-02T08:38:42.673Z,4.10
2023-01-02T08:43:43.952Z,3.85
2023-01-02T08:48:45.235Z,4.30
2023-01-02T08:53:46.546Z,4.32
2023-01-02T08:58:52.860Z,4.60
2023-01-02T09:03:55.171Z,4.30
2023-01-02T09:08:57.225Z,4.78
2023-01-02T09:14:00.027Z,5.07
2023-01-02T09:19:01.965Z,5.00
2023-01-02T09:24:03.464Z,4.63
2023-01-02T09:29:04.855Z,4.20
2023-01-02T09:34:06.261Z,4.82
2023-01-02T09:39:07.659Z,3.43
2023-01-02T09:44:27.700Z,2.17
2023-01-02T09:49:31.191Z,2.10
2023-01-02T09:54:34.013Z,1.93
2023-01-02T10:00:01.764Z,2.00
2023-01-02T10:05:13.300Z,1.80
2023-01-02T10:10:34.953Z,1.90
2023-01-02T10:15:36.881Z,2.45
2023-01-02T10:20:40.320Z,1.60
2023-01-02T10:25:54.161Z,1.60
2023-01-02T10:31:11.018Z,1.43
2023-01-02T10:36:20.449Z,1.90
2023-01-02T10:41:21.775Z,2.00
2023-01-02T10:46:23.139Z,1.67
2023-01-02T10:51:24.496Z,10.43
2023-01-02T10:56:25.857Z,2.40
2023-01-02T11:01:27.358Z,2.17
2023-01-02T11:06:38.870Z,1.93
2023-01-02T11:11:48.279Z,1.88
2023-01-02T11:16:50.207Z,3.20
2023-01-02T11:21:52.431Z,1.77
2023-01-02T11:26:54.380Z,2.00
2023-01-02T11:31:58.572Z,2.17
2023-01-02T11:37:06.690Z,2.30
2023-01-02T11:42:26.869Z,2.17
2023-01-02T11:47:36.813Z,2.73
2023-01-02T11:52:54.369Z,2.17
2023-01-02T11:58:06.938Z,2.22
2023-01-02T12:03:18.847Z,2.10
2023-01-02T12:08:44.794Z,2.42
2023-01-02T12:14:09.919Z,2.80
2023-01-02T12:19:16.937Z,1.90
2023-01-02T12:24:31.933Z,2.40
2023-01-02T12:29:52.129Z,3.23
2023-01-02T12:35:11.938Z,2.43
2023-01-02T12:40:24.123Z,2.22
2023-01-02T12:45:28.641Z,2.47
2023-01-02T12:50:40.619Z,2.40
2023-01-02T12:55:54.829Z,2.65
2023-01-02T13:01:19.352Z,2.60
2023-01-02T13:06:45.405Z,2.73
2023-01-02T13:11:48.570Z,2.28
2023-01-02T13:17:01.438Z,2.17
2023-01-02T13:22:23.206Z,2.30
2023-01-02T13:27:24.667Z,2.53
2023-01-02T13:32:27.710Z,2.58
2023-01-02T13:37:29.664Z,2.13
2023-01-02T13:42:49.748Z,2.00
2023-01-02T13:47:53.119Z,2.40
2023-01-02T13:53:03.665Z,2.40
2023-01-02T13:58:20.303Z,2.40
2023-01-02T14:03:21.744Z,2.53
2023-01-02T14:08:29.061Z,2.43
2023-01-02T14:13:37.154Z,2.97
2023-01-02T14:18:44.279Z,3.10
2023-01-02T14:24:16.219Z,3.10
2023-01-02T14:29:15.813Z,3.00
2023-01-02T14:34:22.904Z,3.07
2023-01-02T14:39:25.838Z,4.03
2023-01-02T14:44:27.095Z,6.65
2023-01-02T14:49:29.282Z,3.87
2023-01-02T14:54:33.640Z,3.85
2023-01-02T14:59:38.124Z,3.27
2023-01-02T15:04:43.369Z,3.80
2023-01-02T15:09:50.186Z,3.75
2023-01-02T15:14:52.592Z,5.30
2023-01-02T15:19:53.947Z,4.18
2023-01-02T15:24:55.251Z,4.37
2023-01-02T15:29:58.075Z,4.95
2023-01-02T15:35:13.153Z,8.07
2023-01-02T15:40:20.988Z,4.33
2023-01-02T15:45:22.296Z,4.50
2023-01-02T15:50:25.015Z,4.80
2023-01-02T15:55:28.187Z,4.10
2023-01-02T16:00:33.745Z,3.92
2023-01-02T16:05:49.597Z,4.20
2023-01-02T16:11:00.866Z,4.82
2023-01-02T16:16:15.795Z,2.60
2023-01-02T16:21:18.552Z,2.60
2023-01-02T16:26:20.934Z,2.70
2023-01-02T16:31:22.865Z,2.60
2023-01-02T16:36:28.951Z,2.40
2023-01-02T16:41:37.260Z,2.53
2023-01-02T16:46:39.121Z,3.33
2023-01-02T16:51:42.792Z,2.67
2023-01-02T16:56:44.249Z,3.80
2023-01-02T17:01:45.650Z,2.70
2023-01-02T17:06:47.180Z,1.97
2023-01-02T17:12:00.877Z,1.50
2023-01-02T17:17:02.202Z,1.50
2023-01-02T17:22:03.461Z,1.90
2023-01-02T17:27:04.765Z,1.40
2023-01-02T17:32:06.119Z,2.10
2023-01-02T17:37:07.424Z,1.70
2023-01-02T17:42:11.405Z,1.40
2023-01-02T17:52:38.055Z,1.30
2023-01-02T17:57:40.242Z,1.40
2023-01-02T18:02:41.984Z,1.30
2023-01-02T18:07:43.358Z,0.90
2023-01-02T18:12:44.621Z,1.10
2023-01-02T18:17:46.005Z,1.50
2023-01-02T18:22:49.983Z,1.43
2023-01-02T18:27:55.228Z,1.13
2023-01-02T18:33:15.672Z,1.67
2023-01-02T18:38:19.321Z,1.00
2023-01-02T18:43:28.056Z,1.15
2023-01-02T18:48:29.996Z,1.10
2023-01-02T18:53:35.906Z,1.30
2023-01-02T18:58:43.269Z,1.30
2023-01-02T19:03:46.582Z,1.20
2023-01-02T19:08:47.884Z,1.10
2023-01-02T19:13:52.608Z,1.00
2023-01-02T19:18:58.119Z,1.80
2023-01-02T19:24:09.751Z,1.80
2023-01-02T19:29:13.757Z,2.17
2023-01-02T19:34:24.244Z,1.20
2023-01-02T19:39:26.907Z,1.50
2023-01-02T19:44:28.223Z,1.42
2023-01-02T19:49:29.497Z,1.40
2023-01-02T19:54:30.890Z,1.30
2023-01-02T19:59:32.153Z,1.52
2023-01-02T20:04:33.441Z,1.40
2023-01-02T20:09:34.743Z,1.40
2023-01-02T20:14:36.064Z,1.67
2023-01-02T20:19:37.524Z,1.40
2023-01-02T20:24:38.855Z,2.00
2023-01-02T20:29:40.126Z,1.90
2023-01-02T20:34:41.432Z,1.80
2023-01-02T20:39:42.751Z,1.40
2023-01-02T20:44:44.135Z,1.70
2023-01-02T20:49:45.621Z,2.10
2023-01-02T20:54:47.000Z,1.90
2023-01-02T20:59:48.305Z,1.83
2023-01-02T21:04:49.698Z,1.50
2023-01-02T21:09:51.791Z,1.30
2023-01-02T21:14:53.151Z,1.40
2023-01-02T21:19:54.486Z,1.60
2023-01-02T21:24:55.878Z,1.40
2023-01-02T21:29:57.185Z,1.80
2023-01-02T21:34:58.496Z,1.37
2023-01-02T21:39:59.937Z,1.20
2023-01-02T21:45:01.322Z,1.50
2023-01-02T21:50:02.704Z,1.42
2023-01-02T21:55:04.297Z,1.60
2023-01-02T22:00:06.077Z,1.23
2023-01-02T22:05:07.811Z,1.30
2023-01-02T22:10:09.680Z,1.20
2023-01-02T22:15:11.761Z,1.08
2023-01-02T22:20:13.060Z,1.45
2023-01-02T22:25:14.362Z,1.20
2023-01-02T22:30:22.040Z,1.10
2023-01-02T22:35:25.906Z,1.10
2023-01-02T22:40:28.067Z,1.20
2023-01-02T22:45:31.775Z,1.10
2023-01-02T22:50:39.800Z,1.27
2023-01-02T22:55:41.219Z,1.00
2023-01-02T23:00:42.663Z,1.13
2023-01-02T23:05:44.157Z,1.00
2023-01-02T23:10:45.481Z,1.10
2023-01-02T23:16:05.341Z,0.97
2023-01-02T23:21:09.972Z,0.93
2023-01-02T23:26:13.248Z,0.93
2023-01-02T23:31:14.625Z,1.25
2023-01-02T23:36:15.896Z,1.10
2023-01-02T23:41:17.352Z,0.90
2023-01-02T23:46:18.744Z,1.00
2023-01-02T23:51:20.208Z,1.00
2023-01-02T23:56:22.827Z,0.90
